Time;durP1;ratioP1;P1;durP2;ratioP2;P2;SDS_P1;SDS_P2;PMS_P1;PMS_P2;Temp;Humidity;BMP_temperature;BMP_pressure;BME280_temperature;BME280_humidity;BME280_pressure;Samples;Min_cycle;Max_cycle;Signal;HPM_P1;HPM_P2
2023/10/15 00:00:22;;;;;;;1.83;1.40;;;12.40;73.60;;;;;;5015148;28;20498;-77
2023/10/15 00:02:49;;;;;;;2.67;1.27;;;12.40;73.60;;;;;;5014374;28;20120;-76
2023/10/15 00:05:25;;;;;;;1.77;1.38;;;12.40;73.70;;;;;;5031058;28;20116;-77
2023/10/15 00:07:51;;;;;;;2.45;1.48;;;12.40;73.70;;;;;;5015259;28;20039;-77
2023/10/15 00:10:25;;;;;;;1.48;1.35;;;12.30;73.60;;;;;;5032383;28;20416;-77
2023/10/15 00:12:52;;;;;;;4.18;1.73;;;12.30;73.90;;;;;;5030731;28;20032;-76
2023/10/15 00:15:19;;;;;;;1.73;1.20;;;12.30;73.70;;;;;;5013000;28;20381;-78
2023/10/15 00:17:47;;;;;;;2.35;1.30;;;12.30;73.60;;;;;;5030546;28;20488;-76
2023/10/15 00:20:16;;;;;;;1.35;1.13;;;12.30;73.70;;;;;;5032469;28;20022;-77
2023/10/15 00:22:49;;;;;;;2.33;1.20;;;12.30;73.70;;;;;;5013481;28;20037;-76
2023/10/15 00:25:17;;;;;;;1.42;1.20;;;12.30;73.70;;;;;;5030052;28;20052;-76
2023/10/15 00:27:52;;;;;;;1.85;1.33;;;12.30;73.70;;;;;;5032808;28;20079;-76
2023/10/15 00:30:19;;;;;;;1.42;1.25;;;12.30;73.70;;;;;;5037496;28;20384;-77
2023/10/15 00:32:46;;;;;;;1.30;1.20;;;12.30;73.70;;;;;;5034877;28;20068;-76
2023/10/15 00:35:13;;;;;;;2.08;1.20;;;12.30;73.70;;;;;;5030929;28;20351;-77
2023/10/15 00:37:52;;;;;;;1.52;1.13;;;12.30;73.80;;;;;;4996784;28;20098;-77
2023/10/15 00:40:20;;;;;;;2.45;1.30;;;12.30;73.90;;;;;;5015621;28;20121;-77
2023/10/15 00:42:46;;;;;;;1.02;1.00;;;12.30;73.80;;;;;;5031316;28;20103;-76
2023/10/15 00:45:14;;;;;;;1.13;1.10;;;12.30;73.80;;;;;;5023766;28;20043;-76
2023/10/15 00:47:51;;;;;;;1.50;1.00;;;12.30;73.90;;;;;;5031898;28;20455;-76
2023/10/15 00:50:18;;;;;;;1.25;1.10;;;12.30;73.90;;;;;;5019511;28;20082;-76
2023/10/15 00:52:43;;;;;;;1.00;1.00;;;12.30;73.90;;;;;;5033771;28;20069;-77
2023/10/15 00:55:17;;;;;;;1.20;1.10;;;12.30;73.90;;;;;;5022559;28;20096;-76
2023/10/15 00:57:48;;;;;;;1.50;1.13;;;12.30;74.00;;;;;;5015166;28;20018;-77
2023/10/15 01:03:04;;;;;;;1.45;1.13;;;12.30;73.90;;;;;;5029155;28;20026;-77
2023/10/15 01:05:34;;;;;;;0.95;0.95;;;12.20;73.90;;;;;;5025460;28;20413;-77
2023/10/15 01:08:04;;;;;;;1.13;0.98;;;12.20;73.90;;;;;;5014671;28;20041;-76
2023/10/15 01:10:40;;;;;;;1.42;1.10;;;12.20;73.90;;;;;;5018413;28;20029;-77
2023/10/15 01:13:17;;;;;;;1.13;1.00;;;12.20;73.90;;;;;;5014348;28;20041;-76
2023/10/15 01:15:46;;;;;;;2.38;1.10;;;12.20;74.00;;;;;;5027128;28;20032;-76
2023/10/15 01:18:12;;;;;;;1.38;1.20;;;12.20;73.90;;;;;;5019930;28;20039;-75
2023/10/15 01:20:44;;;;;;;1.80;1.10;;;12.20;74.00;;;;;;5015663;28;20030;-75
2023/10/15 01:23:28;;;;;;;1.38;1.17;;;12.20;74.00;;;;;;5034880;28;20025;-76
2023/10/15 01:25:57;;;;;;;1.15;0.93;;;12.20;74.00;;;;;;5032638;28;20475;-76
2023/10/15 01:28:36;;;;;;;1.38;1.10;;;12.20;74.00;;;;;;5016232;28;20466;-76
2023/10/15 01:31:06;;;;;;;0.90;0.90;;;12.20;74.00;;;;;;5041541;28;20039;-76
2023/10/15 01:33:45;;;;;;;1.00;1.00;;;12.20;74.00;;;;;;5039476;28;20478;-77
2023/10/15 01:36:19;;;;;;;1.33;1.10;;;12.20;74.00;;;;;;5037910;28;20082;-76
2023/10/15 01:38:46;;;;;;;1.10;1.00;;;12.20;74.10;;;;;;5035444;28;20045;-76
2023/10/15 01:41:13;;;;;;;1.17;1.08;;;12.20;74.10;;;;;;5040821;28;20034;-76
2023/10/15 01:43:46;;;;;;;1.05;0.95;;;12.20;74.10;;;;;;5016300;28;20025;-75
2023/10/15 01:46:39;;;;;;;1.13;1.00;;;12.20;74.10;;;;;;5037858;28;20083;-76
2023/10/15 01:49:06;;;;;;;0.90;0.90;;;12.20;74.20;;;;;;5031718;28;20032;-76
2023/10/15 01:51:39;;;;;;;0.90;0.90;;;12.20;74.30;;;;;;5041199;28;20065;-77
2023/10/15 01:54:09;;;;;;;1.15;1.00;;;12.10;74.10;;;;;;5024558;28;20108;-75
2023/10/15 01:56:44;;;;;;;1.15;1.00;;;12.20;74.20;;;;;;5037691;28;20021;-76
2023/10/15 01:59:11;;;;;;;1.02;0.93;;;12.20;74.30;;;;;;5035519;28;20038;-76
2023/10/15 02:01:40;;;;;;;0.98;0.93;;;12.10;74.10;;;;;;5020409;28;20025;-75
2023/10/15 02:04:25;;;;;;;0.90;0.90;;;12.10;74.10;;;;;;5032096;28;20053;-76
2023/10/15 02:06:51;;;;;;;1.05;1.05;;;12.10;74.20;;;;;;5038424;28;20057;-76
2023/10/15 02:09:24;;;;;;;1.17;1.00;;;12.10;74.10;;;;;;5020742;28;20022;-75
2023/10/15 02:11:54;;;;;;;1.38;0.95;;;12.10;74.10;;;;;;5011211;28;20036;-77
2023/10/15 02:14:23;;;;;;;0.80;0.80;;;12.10;74.20;;;;;;5025990;28;20029;-77
2023/10/15 02:16:50;;;;;;;0.90;0.90;;;12.10;74.20;;;;;;5025749;28;20029;-76
2023/10/15 02:20:08;;;;;;;0.80;0.80;;;12.10;74.20;;;;;;5017393;28;20076;-76
2023/10/15 02:22:12;;;;;;;0.90;0.90;;;12.10;74.30;;;;;;5033474;28;20099;-76
2023/10/15 02:24:39;;;;;;;0.90;0.90;;;12.10;74.20;;;;;;5016957;28;20033;-77
2023/10/15 02:27:06;;;;;;;0.80;0.80;;;12.10;74.20;;;;;;5033424;28;20025;-76
2023/10/15 02:32:07;;;;;;;1.23;1.05;;;12.10;74.20;;;;;;5042991;28;20405;-76
2023/10/15 02:34:40;;;;;;;0.90;0.90;;;12.10;74.30;;;;;;5037391;28;20029;-77
2023/10/15 02:37:10;;;;;;;1.10;0.90;;;12.10;74.30;;;;;;5034405;28;20025;-76
2023/10/15 02:39:43;;;;;;;1.05;1.00;;;12.10;74.20;;;;;;5015232;28;20121;-76
2023/10/15 02:42:10;;;;;;;1.45;0.90;;;12.10;74.30;;;;;;5035738;28;20123;-76
2023/10/15 02:44:38;;;;;;;1.08;0.95;;;12.10;74.30;;;;;;5042348;28;20041;-76
2023/10/15 02:49:53;;;;;;;0.90;0.90;;;12.00;74.30;;;;;;5028662;28;20073;-76
2023/10/15 02:52:24;;;;;;;1.05;0.93;;;12.00;74.20;;;;;;5031425;28;20486;-76
2023/10/15 02:54:50;;;;;;;1.10;0.90;;;12.00;74.30;;;;;;5028947;28;20026;-76
2023/10/15 02:57:16;;;;;;;1.00;0.95;;;12.00;74.30;;;;;;5034924;28;20035;-76
2023/10/15 02:59:50;;;;;;;0.90;0.90;;;12.00;74.30;;;;;;5035068;28;20056;-76
2023/10/15 03:02:20;;;;;;;0.80;0.80;;;12.00;74.30;;;;;;5041114;28;20047;-76
2023/10/15 03:04:52;;;;;;;1.00;1.00;;;12.00;74.30;;;;;;5037322;28;20053;-75
2023/10/15 03:07:26;;;;;;;0.93;0.90;;;12.00;74.30;;;;;;5031812;28;20049;-75
2023/10/15 03:09:56;;;;;;;1.40;1.00;;;12.00;74.30;;;;;;5038876;28;20037;-76
2023/10/15 03:12:33;;;;;;;0.90;0.90;;;12.00;74.30;;;;;;5036868;28;20040;-75
2023/10/15 03:15:00;;;;;;;0.90;0.90;;;12.00;74.30;;;;;;5018511;28;20030;-75
2023/10/15 03:17:29;;;;;;;0.98;0.90;;;12.00;74.30;;;;;;5020130;28;20026;-76
2023/10/15 03:22:59;;;;;;;0.88;0.88;;;12.00;74.40;;;;;;4990427;28;20135;-76
2023/10/15 03:25:26;;;;;;;0.90;0.90;;;12.00;74.20;;;;;;5008401;28;20037;-76
2023/10/15 03:27:54;;;;;;;1.10;0.90;;;12.00;74.30;;;;;;5040386;28;20075;-76
2023/10/15 03:30:23;;;;;;;1.00;0.90;;;11.90;74.30;;;;;;5015848;28;20075;-75
2023/10/15 03:32:52;;;;;;;1.10;0.90;;;11.90;74.30;;;;;;5018413;28;20095;-75
2023/10/15 03:35:38;;;;;;;1.13;1.02;;;11.90;74.30;;;;;;5016312;28;20038;-75
2023/10/15 03:38:06;;;;;;;0.80;0.80;;;12.00;74.40;;;;;;5029996;28;20413;-76
2023/10/15 03:40:46;;;;;;;0.73;0.73;;;12.00;74.30;;;;;;5037799;28;20088;-76
2023/10/15 03:43:21;;;;;;;0.80;0.80;;;11.90;74.30;;;;;;5044216;28;20092;-75
2023/10/15 03:45:53;;;;;;;0.98;0.90;;;11.90;74.30;;;;;;5039111;28;20040;-76
2023/10/15 03:48:29;;;;;;;0.98;0.95;;;11.90;74.30;;;;;;5031273;28;20040;-75
2023/10/15 03:50:55;;;;;;;0.90;0.90;;;11.90;74.40;;;;;;5031851;28;20498;-75
2023/10/15 03:53:30;;;;;;;0.80;0.80;;;11.90;74.40;;;;;;5029711;28;20029;-75
2023/10/15 03:55:57;;;;;;;0.90;0.90;;;11.90;74.40;;;;;;5031280;28;20033;-76
2023/10/15 03:58:23;;;;;;;0.93;0.90;;;11.90;74.40;;;;;;5039262;28;20459;-76
2023/10/15 04:00:56;;;;;;;0.90;0.90;;;11.90;74.40;;;;;;5046263;28;20033;-76
2023/10/15 04:03:28;;;;;;;1.00;0.90;;;11.90;74.40;;;;;;5034480;28;20037;-77
2023/10/15 04:06:01;;;;;;;0.90;0.90;;;11.90;74.40;;;;;;5022612;28;20041;-76
2023/10/15 04:08:33;;;;;;;1.48;1.00;;;11.90;74.40;;;;;;5018650;28;20239;-76
2023/10/15 04:11:00;;;;;;;1.40;0.90;;;11.90;74.40;;;;;;5010723;28;20432;-76
2023/10/15 04:13:26;;;;;;;0.90;0.90;;;11.90;74.40;;;;;;5036523;28;20512;-76
2023/10/15 04:15:54;;;;;;;0.90;0.90;;;11.90;74.40;;;;;;5015198;28;20037;-77
2023/10/15 04:18:23;;;;;;;1.00;1.00;;;11.80;74.40;;;;;;5022020;28;20128;-76
2023/10/15 04:20:50;;;;;;;1.05;0.90;;;11.90;74.40;;;;;;5021243;28;20049;-76
2023/10/15 04:23:52;;;;;;;0.90;0.90;;;11.80;74.40;;;;;;5032188;28;20029;-75
2023/10/15 04:26:12;;;;;;;0.80;0.80;;;11.80;74.30;;;;;;5021433;28;20434;-76
2023/10/15 04:28:40;;;;;;;1.27;0.95;;;11.80;74.30;;;;;;5043177;28;20295;-76
2023/10/15 04:31:11;;;;;;;1.42;1.00;;;11.80;74.40;;;;;;5023731;28;20022;-76
2023/10/15 04:33:44;;;;;;;0.73;0.73;;;11.80;74.40;;;;;;5044040;28;20027;-76
2023/10/15 04:36:10;;;;;;;1.00;1.00;;;11.80;74.40;;;;;;5028937;28;20461;-76
2023/10/15 04:38:38;;;;;;;1.00;1.00;;;11.80;74.40;;;;;;5012222;28;20044;-77
2023/10/15 04:41:04;;;;;;;0.90;0.90;;;11.80;74.40;;;;;;5028900;28;20105;-76
2023/10/15 04:43:40;;;;;;;1.23;1.10;;;11.70;74.40;;;;;;5023159;28;20030;-76
2023/10/15 04:46:07;;;;;;;1.42;1.00;;;11.80;74.40;;;;;;5018375;28;20037;-78
2023/10/15 04:48:36;;;;;;;0.80;0.80;;;11.80;74.40;;;;;;5032754;28;20033;-76
2023/10/15 04:51:04;;;;;;;0.80;0.80;;;11.80;74.40;;;;;;5036050;28;20098;-76
2023/10/15 04:53:31;;;;;;;0.80;0.80;;;11.80;74.50;;;;;;5036448;28;20461;-76
2023/10/15 04:55:59;;;;;;;0.80;0.80;;;11.80;74.40;;;;;;5018705;28;20034;-77
2023/10/15 04:58:27;;;;;;;0.90;0.90;;;11.80;74.50;;;;;;5017340;28;20075;-77
2023/10/15 05:00:54;;;;;;;1.27;0.93;;;11.80;74.40;;;;;;5035168;28;20034;-77
2023/10/15 05:03:23;;;;;;;0.80;0.80;;;11.80;74.40;;;;;;5038465;28;20486;-76
2023/10/15 05:05:50;;;;;;;1.02;1.00;;;11.70;74.40;;;;;;5039404;28;20028;-77
2023/10/15 05:08:17;;;;;;;1.15;0.85;;;11.80;74.50;;;;;;5039585;28;20033;-76
2023/10/15 05:10:50;;;;;;;0.80;0.80;;;11.80;74.40;;;;;;5035811;28;20478;-76
2023/10/15 05:13:17;;;;;;;0.93;0.82;;;11.80;74.50;;;;;;5039093;28;20026;-77
2023/10/15 05:15:50;;;;;;;0.90;0.90;;;11.70;74.40;;;;;;5033001;28;20038;-77
2023/10/15 05:18:18;;;;;;;1.20;1.10;;;11.70;74.40;;;;;;5041436;28;20044;-76
2023/10/15 05:20:48;;;;;;;0.90;0.90;;;11.70;74.40;;;;;;5021185;28;20498;-76
2023/10/15 05:23:15;;;;;;;0.70;0.70;;;11.70;74.40;;;;;;5038106;28;20131;-76
2023/10/15 05:25:41;;;;;;;0.80;0.80;;;11.70;74.40;;;;;;5034401;28;20029;-76
2023/10/15 05:28:07;;;;;;;0.90;0.90;;;11.70;74.40;;;;;;5015006;28;20040;-77
2023/10/15 05:30:33;;;;;;;1.48;0.80;;;11.70;74.40;;;;;;5020054;28;20029;-76
2023/10/15 05:33:02;;;;;;;0.80;0.80;;;11.60;74.40;;;;;;5031244;28;20033;-77
2023/10/15 05:35:28;;;;;;;0.90;0.90;;;11.70;74.40;;;;;;5032751;28;20025;-77
2023/10/15 05:37:56;;;;;;;0.90;0.90;;;11.60;74.40;;;;;;5033769;28;20075;-77
2023/10/15 05:40:22;;;;;;;0.88;0.88;;;11.60;74.40;;;;;;5028051;28;20033;-77
2023/10/15 05:42:49;;;;;;;0.98;0.98;;;11.60;74.40;;;;;;5046405;28;20036;-76
2023/10/15 05:45:15;;;;;;;1.08;1.00;;;11.60;74.40;;;;;;5024214;28;20048;-77
2023/10/15 05:47:44;;;;;;;0.75;0.75;;;11.60;74.50;;;;;;5023865;28;20053;-76
2023/10/15 05:50:12;;;;;;;0.93;0.93;;;11.60;74.40;;;;;;5036204;28;20037;-77
2023/10/15 05:52:41;;;;;;;0.90;0.90;;;11.60;74.40;;;;;;5035065;28;20030;-77
2023/10/15 05:55:07;;;;;;;1.13;1.00;;;11.60;74.50;;;;;;5041138;28;20029;-76
2023/10/15 05:57:36;;;;;;;1.00;0.90;;;11.50;74.40;;;;;;5032819;28;20025;-76
2023/10/15 06:00:17;;;;;;;1.15;1.02;;;11.50;74.40;;;;;;5038236;28;20514;-77
2023/10/15 06:02:53;;;;;;;1.08;1.00;;;11.50;74.40;;;;;;5032900;28;20549;-76
2023/10/15 06:05:19;;;;;;;0.75;0.75;;;11.50;74.40;;;;;;5042128;28;20054;-76
2023/10/15 06:07:46;;;;;;;0.93;0.90;;;11.50;74.40;;;;;;5044046;28;20075;-77
2023/10/15 06:10:12;;;;;;;0.90;0.90;;;11.50;74.40;;;;;;5005012;28;20385;-77
2023/10/15 06:12:41;;;;;;;1.00;1.00;;;11.50;74.40;;;;;;5026258;28;20036;-76
2023/10/15 06:15:09;;;;;;;1.15;1.05;;;11.50;74.50;;;;;;5015949;28;20433;-76
2023/10/15 06:17:35;;;;;;;0.88;0.85;;;11.50;74.40;;;;;;5042369;28;20073;-76
2023/10/15 06:20:13;;;;;;;0.82;0.80;;;11.40;74.40;;;;;;5038157;28;20041;-76
2023/10/15 06:22:40;;;;;;;1.02;0.85;;;11.40;74.40;;;;;;5019969;28;20037;-77
2023/10/15 06:25:08;;;;;;;0.90;0.90;;;11.40;74.40;;;;;;5016255;28;20035;-75
2023/10/15 06:27:38;;;;;;;0.90;0.80;;;11.40;74.40;;;;;;5034631;28;20079;-76
2023/10/15 06:30:05;;;;;;;1.10;1.00;;;11.40;74.50;;;;;;5032978;28;20397;-76
2023/10/15 06:32:31;;;;;;;0.80;0.80;;;11.40;74.40;;;;;;5039732;28;20486;-76
2023/10/15 06:34:58;;;;;;;1.10;1.10;;;11.40;74.50;;;;;;5036659;28;20534;-77
2023/10/15 06:37:23;;;;;;;0.95;0.95;;;11.40;74.50;;;;;;5039731;28;20038;-77
2023/10/15 06:39:49;;;;;;;1.00;1.00;;;11.40;74.50;;;;;;5022609;28;20079;-76
2023/10/15 06:42:15;;;;;;;1.45;1.00;;;11.40;74.50;;;;;;5008718;28;20896;-76
2023/10/15 06:44:40;;;;;;;1.00;1.00;;;11.30;74.40;;;;;;5033524;28;20024;-76
2023/10/15 06:47:06;;;;;;;0.80;0.80;;;11.30;74.40;;;;;;5004141;28;20036;-78
2023/10/15 06:49:32;;;;;;;1.00;1.00;;;11.30;74.40;;;;;;5031127;28;20037;-75
2023/10/15 06:51:57;;;;;;;1.48;1.05;;;11.30;74.40;;;;;;5037510;28;20037;-75
2023/10/15 06:54:23;;;;;;;1.00;1.00;;;11.30;74.40;;;;;;5025683;28;20390;-75
2023/10/15 06:56:49;;;;;;;1.17;1.10;;;11.30;74.40;;;;;;5038772;28;20753;-75
2023/10/15 06:59:17;;;;;;;1.17;1.08;;;11.30;74.40;;;;;;5014284;28;20065;-77
2023/10/15 07:01:43;;;;;;;1.98;0.93;;;11.30;74.40;;;;;;5015155;28;20033;-75
2023/10/15 07:04:11;;;;;;;1.20;1.10;;;11.30;74.50;;;;;;5030856;28;20383;-76
2023/10/15 07:06:39;;;;;;;2.13;1.00;;;11.30;74.50;;;;;;5042411;28;20078;-77
2023/10/15 07:09:06;;;;;;;1.00;1.00;;;11.30;74.50;;;;;;5018189;28;20037;-76
2023/10/15 07:11:31;;;;;;;2.78;1.00;;;11.30;74.50;;;;;;5025289;28;21804;-76
2023/10/15 07:13:57;;;;;;;1.10;1.00;;;11.30;74.50;;;;;;5013152;28;20029;-78
2023/10/15 07:16:24;;;;;;;0.93;0.90;;;11.30;74.50;;;;;;5012948;28;20405;-76
2023/10/15 07:18:50;;;;;;;1.08;1.00;;;11.30;74.50;;;;;;5001478;28;20239;-76
2023/10/15 07:21:17;;;;;;;1.00;1.00;;;11.30;74.50;;;;;;5011772;28;20091;-76
2023/10/15 07:23:43;;;;;;;1.00;0.90;;;11.30;74.60;;;;;;5041297;28;20033;-75
2023/10/15 07:26:09;;;;;;;1.08;1.08;;;11.30;74.50;;;;;;5041320;28;20067;-78
2023/10/15 07:28:35;;;;;;;0.90;0.90;;;11.30;74.50;;;;;;5036648;28;20033;-76
2023/10/15 07:31:01;;;;;;;1.50;1.00;;;11.30;74.60;;;;;;5021424;28;20029;-77
2023/10/15 07:33:27;;;;;;;0.90;0.90;;;11.30;74.60;;;;;;5048462;28;20040;-76
2023/10/15 07:35:52;;;;;;;1.10;1.00;;;11.30;74.60;;;;;;5045169;28;20386;-76
2023/10/15 07:38:18;;;;;;;0.95;0.85;;;11.30;74.60;;;;;;5033094;28;20438;-76
2023/10/15 07:40:44;;;;;;;1.10;1.00;;;11.30;74.60;;;;;;5013757;28;20034;-76
2023/10/15 07:43:11;;;;;;;1.20;1.10;;;11.30;74.60;;;;;;4994075;28;20057;-78
2023/10/15 07:45:38;;;;;;;1.02;1.02;;;11.30;74.60;;;;;;5020284;28;20040;-81
2023/10/15 07:48:05;;;;;;;0.80;0.80;;;11.30;74.60;;;;;;5041472;28;20044;-76
2023/10/15 07:50:34;;;;;;;1.35;1.20;;;11.30;74.60;;;;;;5027826;28;20022;-78
2023/10/15 07:53:00;;;;;;;1.63;1.20;;;11.40;74.60;;;;;;5018864;28;20538;-82
2023/10/15 07:55:26;;;;;;;1.55;1.05;;;11.30;74.60;;;;;;5000217;28;20040;-77
2023/10/15 07:57:53;;;;;;;1.52;1.15;;;11.40;74.60;;;;;;5013907;28;20386;-77
2023/10/15 08:00:26;;;;;;;1.15;1.10;;;11.40;74.60;;;;;;5043682;28;20052;-77
2023/10/15 08:02:53;;;;;;;1.13;1.02;;;11.30;74.60;;;;;;5029695;28;20025;-77
2023/10/15 08:05:21;;;;;;;0.90;0.90;;;11.40;74.60;;;;;;5045938;28;20073;-77
2023/10/15 08:07:48;;;;;;;1.25;1.10;;;11.40;74.60;;;;;;5039818;28;20088;-77
2023/10/15 08:10:14;;;;;;;1.00;1.00;;;11.40;74.60;;;;;;5039726;28;20071;-78
2023/10/15 08:12:41;;;;;;;1.08;1.00;;;11.40;74.60;;;;;;5042005;28;20347;-77
2023/10/15 08:15:07;;;;;;;1.38;1.00;;;11.40;74.60;;;;;;5010270;28;20058;-78
2023/10/15 08:17:33;;;;;;;1.13;1.02;;;11.40;74.60;;;;;;5039035;28;20086;-77
2023/10/15 08:19:58;;;;;;;1.23;1.05;;;11.40;74.60;;;;;;5035235;28;20439;-76
2023/10/15 08:22:25;;;;;;;1.40;1.15;;;11.40;74.60;;;;;;5022312;28;20047;-78
2023/10/15 08:24:51;;;;;;;1.50;1.15;;;11.40;74.60;;;;;;5041640;28;20029;-76
2023/10/15 08:27:16;;;;;;;1.83;1.00;;;11.50;74.70;;;;;;5020745;28;20017;-77
2023/10/15 08:29:42;;;;;;;1.25;1.13;;;11.50;74.70;;;;;;5030243;28;20115;-76
2023/10/15 08:32:16;;;;;;;1.52;1.00;;;11.50;74.70;;;;;;5033507;28;20421;-76
2023/10/15 08:34:44;;;;;;;1.08;0.93;;;11.50;74.70;;;;;;5041032;28;20032;-76
2023/10/15 08:37:10;;;;;;;1.30;1.00;;;11.50;74.70;;;;;;5034825;28;20470;-80
2023/10/15 08:39:38;;;;;;;1.20;1.02;;;11.50;74.70;;;;;;5042908;28;20106;-77
2023/10/15 08:42:11;;;;;;;1.75;1.17;;;11.50;74.70;;;;;;5040001;28;20033;-76
2023/10/15 08:44:39;;;;;;;1.02;1.00;;;11.50;74.70;;;;;;5036250;28;20031;-76
2023/10/15 08:47:11;;;;;;;0.98;0.88;;;11.50;74.70;;;;;;5035311;28;20034;-76
2023/10/15 08:49:44;;;;;;;0.80;0.80;;;11.60;74.80;;;;;;5031781;28;20103;-75
2023/10/15 08:52:10;;;;;;;1.00;0.80;;;11.60;74.70;;;;;;5031942;28;20053;-77
2023/10/15 08:54:38;;;;;;;1.25;1.10;;;11.60;74.70;;;;;;5038304;28;20034;-76
2023/10/15 08:57:08;;;;;;;1.00;1.00;;;11.60;74.70;;;;;;5036618;28;20150;-76
2023/10/15 08:59:35;;;;;;;0.93;0.93;;;11.60;74.70;;;;;;5039320;28;20179;-76
2023/10/15 09:02:08;;;;;;;1.05;0.90;;;11.60;74.70;;;;;;5036529;28;20084;-77
2023/10/15 09:04:34;;;;;;;0.90;0.90;;;11.70;74.80;;;;;;5014971;28;20045;-76
2023/10/15 09:07:04;;;;;;;1.30;1.00;;;11.70;74.70;;;;;;5031494;28;20029;-77
2023/10/15 09:09:30;;;;;;;0.90;0.90;;;11.70;74.70;;;;;;5041693;28;20059;-77
2023/10/15 09:11:56;;;;;;;1.00;1.00;;;11.70;74.70;;;;;;5035870;28;20033;-79
2023/10/15 09:14:42;;;;;;;0.90;0.90;;;11.70;74.70;;;;;;5046783;28;20129;-75
2023/10/15 09:17:10;;;;;;;1.05;0.93;;;11.70;74.80;;;;;;5037579;28;20041;-82
2023/10/15 09:19:40;;;;;;;1.00;1.00;;;11.80;74.70;;;;;;5029595;28;20112;-77
2023/10/15 09:22:06;;;;;;;1.45;1.02;;;11.80;74.80;;;;;;5036784;28;20125;-76
2023/10/15 09:24:33;;;;;;;1.38;0.90;;;11.80;74.70;;;;;;5044730;28;20075;-75
2023/10/15 09:27:00;;;;;;;0.90;0.90;;;11.80;74.70;;;;;;5032232;28;20332;-76
2023/10/15 09:29:30;;;;;;;1.05;0.88;;;11.80;74.70;;;;;;5002694;28;20033;-77
2023/10/15 09:31:56;;;;;;;1.10;1.00;;;11.90;74.70;;;;;;5036204;28;20021;-77
2023/10/15 09:34:23;;;;;;;0.95;0.95;;;11.90;74.70;;;;;;5030819;28;20029;-78
2023/10/15 09:36:49;;;;;;;0.95;0.90;;;11.90;74.70;;;;;;5034270;28;20076;-78
2023/10/15 09:39:15;;;;;;;0.90;0.90;;;12.00;74.70;;;;;;5044984;28;20033;-78
2023/10/15 09:41:42;;;;;;;0.98;0.90;;;12.00;74.70;;;;;;5000026;28;20053;-78
2023/10/15 09:44:14;;;;;;;1.63;1.10;;;12.00;74.70;;;;;;5037284;28;20041;-77
2023/10/15 09:46:43;;;;;;;1.63;1.00;;;12.10;74.70;;;;;;5026418;28;20029;-77
2023/10/15 09:49:13;;;;;;;0.80;0.80;;;12.10;74.60;;;;;;5018570;28;20386;-76
2023/10/15 09:51:40;;;;;;;0.82;0.82;;;12.20;74.70;;;;;;5022560;28;20033;-77
2023/10/15 09:54:11;;;;;;;0.77;0.77;;;12.10;74.60;;;;;;5024520;28;20517;-76
2023/10/15 09:56:45;;;;;;;1.83;1.00;;;12.20;74.70;;;;;;5020214;28;20041;-76
2023/10/15 09:59:11;;;;;;;1.23;1.13;;;12.20;74.70;;;;;;5033569;28;20041;-75
2023/10/15 10:01:44;;;;;;;0.80;0.80;;;12.20;74.60;;;;;;5037631;28;20291;-75
2023/10/15 10:04:40;;;;;;;0.93;0.90;;;12.30;74.70;;;;;;5034033;28;20046;-75
2023/10/15 10:07:24;;;;;;;0.98;0.98;;;12.30;74.70;;;;;;5037805;28;20032;-75
2023/10/15 10:10:09;;;;;;;0.80;0.80;;;12.30;74.50;;;;;;5037804;28;20025;-75
2023/10/15 10:13:02;;;;;;;1.05;0.88;;;12.30;74.60;;;;;;5042501;28;20063;-75
2023/10/15 10:15:42;;;;;;;1.08;0.90;;;12.30;74.50;;;;;;5031719;28;20480;-75
2023/10/15 10:18:11;;;;;;;0.90;0.90;;;12.40;74.50;;;;;;5019557;28;20455;-75
2023/10/15 10:20:38;;;;;;;1.00;1.00;;;12.40;74.50;;;;;;5033822;28;20079;-75
2023/10/15 10:23:06;;;;;;;0.98;0.98;;;12.40;74.50;;;;;;5040037;28;20090;-75
2023/10/15 10:25:42;;;;;;;1.00;0.82;;;12.50;74.60;;;;;;5017188;28;20037;-75
2023/10/15 10:28:19;;;;;;;0.85;0.85;;;12.50;74.60;;;;;;5032466;28;20087;-75
2023/10/15 10:30:58;;;;;;;0.77;0.77;;;12.50;74.60;;;;;;5039201;28;20037;-75
2023/10/15 10:33:42;;;;;;;0.98;0.70;;;12.50;74.60;;;;;;5040250;28;20136;-75
2023/10/15 10:36:37;;;;;;;1.10;0.93;;;12.50;74.50;;;;;;5032001;28;20390;-75
2023/10/15 10:39:13;;;;;;;0.80;0.80;;;12.60;74.60;;;;;;5030027;28;20045;-75
2023/10/15 10:41:49;;;;;;;1.10;1.00;;;12.60;74.50;;;;;;5027580;28;20033;-75
2023/10/15 10:44:24;;;;;;;0.90;0.90;;;12.60;74.50;;;;;;5033118;28;20021;-77
2023/10/15 10:46:54;;;;;;;1.13;0.90;;;12.70;74.50;;;;;;5040725;28;20075;-75
2023/10/15 10:49:39;;;;;;;0.90;0.90;;;12.60;74.40;;;;;;5000361;28;20029;-75
2023/10/15 10:52:23;;;;;;;0.80;0.80;;;12.70;74.60;;;;;;5036375;28;20034;-75
2023/10/15 10:54:49;;;;;;;0.73;0.70;;;12.70;74.50;;;;;;5006679;28;20558;-75
2023/10/15 10:57:18;;;;;;;0.88;0.88;;;12.70;74.40;;;;;;5047889;28;20112;-76
2023/10/15 10:59:44;;;;;;;1.48;0.98;;;12.70;74.50;;;;;;5039520;28;20128;-75
2023/10/15 11:02:11;;;;;;;1.60;1.02;;;12.70;74.50;;;;;;5023419;28;20108;-74
2023/10/15 11:04:41;;;;;;;0.80;0.80;;;12.70;74.50;;;;;;5036120;28;20052;-74
2023/10/15 11:07:09;;;;;;;1.30;0.85;;;12.70;74.50;;;;;;5020760;28;20042;-75
2023/10/15 11:09:37;;;;;;;1.02;1.02;;;12.70;74.50;;;;;;5032639;28;20068;-75
2023/10/15 11:12:06;;;;;;;0.80;0.75;;;12.80;74.60;;;;;;5042164;28;20041;-75
2023/10/15 11:14:33;;;;;;;0.77;0.77;;;12.80;74.60;;;;;;5024020;28;20485;-76
2023/10/15 11:16:58;;;;;;;0.85;0.85;;;12.70;74.50;;;;;;5015356;28;20036;-75
2023/10/15 11:19:30;;;;;;;1.08;0.90;;;12.70;74.50;;;;;;5024962;28;20391;-76
2023/10/15 11:21:56;;;;;;;0.80;0.80;;;12.80;74.60;;;;;;5022490;28;20109;-76
2023/10/15 11:24:23;;;;;;;0.90;0.90;;;12.80;74.60;;;;;;5046025;28;20025;-75
2023/10/15 11:26:50;;;;;;;1.05;0.85;;;12.80;74.60;;;;;;5034928;28;20372;-75
2023/10/15 11:29:18;;;;;;;0.93;0.93;;;12.80;74.60;;;;;;5023707;28;20037;-76
2023/10/15 11:31:46;;;;;;;1.10;1.00;;;12.80;74.60;;;;;;5032164;28;20104;-75
2023/10/15 11:34:25;;;;;;;1.00;0.90;;;12.80;74.50;;;;;;5017164;28;20025;-78
2023/10/15 11:36:55;;;;;;;0.90;0.90;;;12.90;74.60;;;;;;5034708;28;20032;-76
2023/10/15 11:39:25;;;;;;;1.15;1.05;;;12.90;74.60;;;;;;5040046;28;20063;-77
2023/10/15 11:41:56;;;;;;;0.70;0.70;;;12.90;74.60;;;;;;5034072;28;20025;-77
2023/10/15 11:44:26;;;;;;;0.93;0.77;;;12.90;74.60;;;;;;5037362;28;20029;-76
2023/10/15 11:46:53;;;;;;;1.23;0.90;;;12.90;74.50;;;;;;5035617;28;20022;-77
2023/10/15 11:49:22;;;;;;;1.15;1.00;;;12.90;74.50;;;;;;5032061;28;20489;-76
2023/10/15 11:51:49;;;;;;;0.80;0.80;;;12.90;74.50;;;;;;5016563;28;20040;-75
2023/10/15 11:54:16;;;;;;;0.80;0.80;;;12.90;74.40;;;;;;5038227;28;20035;-76
2023/10/15 11:56:48;;;;;;;1.48;1.02;;;12.90;74.40;;;;;;5013121;28;20115;-78
2023/10/15 11:59:13;;;;;;;1.60;1.00;;;13.00;74.40;;;;;;5034554;28;20041;-77
2023/10/15 12:01:39;;;;;;;0.98;0.90;;;13.00;74.40;;;;;;5005718;28;20045;-77
2023/10/15 12:04:07;;;;;;;1.02;0.90;;;13.00;74.30;;;;;;5032660;28;20465;-77
2023/10/15 12:06:33;;;;;;;0.93;0.93;;;13.00;74.30;;;;;;5034435;28;20032;-77
2023/10/15 12:08:59;;;;;;;0.93;0.90;;;13.10;74.30;;;;;;5035637;28;20026;-80
2023/10/15 12:11:28;;;;;;;0.95;0.95;;;13.10;74.30;;;;;;5042199;28;20052;-79
2023/10/15 12:13:54;;;;;;;2.40;0.98;;;13.10;74.30;;;;;;5031101;28;20543;-79
2023/10/15 12:16:20;;;;;;;0.80;0.80;;;13.10;74.20;;;;;;5005234;28;20029;-79
2023/10/15 12:18:45;;;;;;;1.35;0.80;;;13.10;74.20;;;;;;5038105;28;20041;-79
2023/10/15 12:21:11;;;;;;;0.80;0.80;;;13.10;74.20;;;;;;5027658;28;20037;-79
2023/10/15 12:23:37;;;;;;;1.98;0.90;;;13.20;74.20;;;;;;4985085;28;20079;-79
2023/10/15 12:26:07;;;;;;;0.75;0.75;;;13.20;74.20;;;;;;5038383;28;20528;-77
2023/10/15 12:28:43;;;;;;;1.08;0.73;;;13.20;74.20;;;;;;5018518;28;20037;-79
2023/10/15 12:31:09;;;;;;;0.80;0.80;;;13.20;74.20;;;;;;5028439;28;20125;-76
2023/10/15 12:33:35;;;;;;;1.35;1.10;;;13.20;74.10;;;;;;5023902;28;20029;-77
2023/10/15 12:36:01;;;;;;;1.52;1.00;;;13.30;74.10;;;;;;5022438;28;20075;-77
2023/10/15 12:38:26;;;;;;;1.48;0.80;;;13.30;74.10;;;;;;5011451;28;20044;-77
2023/10/15 12:40:55;;;;;;;2.38;0.98;;;13.30;74.10;;;;;;5034891;28;20036;-77
2023/10/15 12:43:21;;;;;;;1.70;0.90;;;13.30;74.10;;;;;;5013844;28;20390;-76
2023/10/15 12:45:52;;;;;;;0.80;0.80;;;13.30;74.10;;;;;;4997006;28;20033;-78
2023/10/15 12:48:20;;;;;;;0.77;0.77;;;13.40;74.20;;;;;;5033047;28;20101;-78
2023/10/15 12:50:47;;;;;;;1.17;0.88;;;13.40;74.10;;;;;;5041659;28;20469;-76
2023/10/15 12:53:13;;;;;;;2.42;1.00;;;13.40;74.10;;;;;;5030676;28;20326;-78
2023/10/15 12:55:39;;;;;;;0.90;0.90;;;13.40;74.10;;;;;;5029381;28;20390;-78
2023/10/15 12:58:05;;;;;;;0.80;0.80;;;13.40;74.10;;;;;;5019164;28;20108;-78
2023/10/15 13:00:32;;;;;;;1.25;0.98;;;13.40;74.10;;;;;;5029519;28;20052;-77
2023/10/15 13:02:58;;;;;;;1.38;1.15;;;13.40;74.10;;;;;;5016026;28;20038;-77
2023/10/15 13:05:27;;;;;;;0.82;0.82;;;13.40;74.00;;;;;;5004525;28;20096;-77
2023/10/15 13:07:54;;;;;;;0.98;0.88;;;13.50;74.10;;;;;;5025352;28;20056;-78
2023/10/15 13:10:20;;;;;;;1.48;1.00;;;13.50;74.10;;;;;;4999447;28;20478;-77